createdAt,value
2022-09-20T00:00:19.832Z,1014.49
2022-09-20T00:01:19.900Z,1014.46
2022-09-20T00:02:19.821Z,1014.49
2022-09-20T00:03:19.802Z,1014.51
2022-09-20T00:04:19.811Z,1014.48
2022-09-20T00:05:19.802Z,1014.51
2022-09-20T00:06:19.771Z,1014.53
2022-09-20T00:07:19.772Z,1014.57
2022-09-20T00:08:19.760Z,1014.58
2022-09-20T00:09:19.755Z,1014.62
2022-09-20T00:10:19.735Z,1014.53
2022-09-20T00:11:19.714Z,1014.55
2022-09-20T00:12:19.714Z,1014.58
2022-09-20T00:13:19.692Z,1014.58
2022-09-20T00:14:19.712Z,1014.58
2022-09-20T00:15:19.890Z,1014.65
2022-09-20T00:16:19.707Z,1014.59
2022-09-20T00:17:19.653Z,1014.59
2022-09-20T00:18:19.645Z,1014.57
2022-09-20T00:19:19.634Z,1014.59
2022-09-20T00:20:19.652Z,1014.59
2022-09-20T00:21:19.604Z,1014.60
2022-09-20T00:22:19.622Z,1014.60
2022-09-20T00:23:19.584Z,1014.58
2022-09-20T00:24:19.604Z,1014.57
2022-09-20T00:25:19.565Z,1014.64
2022-09-20T00:26:19.555Z,1014.60
2022-09-20T00:27:19.545Z,1014.62
2022-09-20T00:28:19.542Z,1014.61
2022-09-20T00:29:19.548Z,1014.61
2022-09-20T00:30:19.517Z,1014.59
2022-09-20T00:31:19.585Z,1014.61
2022-09-20T00:32:19.545Z,1014.62
2022-09-20T00:33:19.476Z,1014.67
2022-09-20T00:34:19.511Z,1014.62
2022-09-20T00:35:19.464Z,1014.59
2022-09-20T00:36:19.452Z,1014.65
2022-09-20T00:37:19.446Z,1014.63
2022-09-20T00:38:19.432Z,1014.65
2022-09-20T00:39:19.436Z,1014.65
2022-09-20T00:40:19.437Z,1014.61
2022-09-20T00:41:19.394Z,1014.64
2022-09-20T00:42:19.417Z,1014.61
2022-09-20T00:43:19.375Z,1014.61
2022-09-20T00:44:19.387Z,1014.63
2022-09-20T00:45:19.375Z,1014.59
2022-09-20T00:46:19.388Z,1014.56
2022-09-20T00:47:19.335Z,1014.58
2022-09-20T00:48:19.328Z,1014.51
2022-09-20T00:49:19.317Z,1014.54
2022-09-20T00:50:19.328Z,1014.56
2022-09-20T00:51:19.287Z,1014.54
2022-09-20T00:52:19.287Z,1014.53
2022-09-20T00:53:20.090Z,1014.56
2022-09-20T00:54:20.529Z,1014.54
2022-09-20T00:55:19.256Z,1014.58
2022-09-20T00:56:19.238Z,1014.56
2022-09-20T00:57:19.228Z,1014.59
2022-09-20T00:58:19.218Z,1014.53
2022-09-20T00:59:19.207Z,1014.58
2022-09-20T01:00:20.044Z,1014.54
2022-09-20T01:01:19.235Z,1014.53
2022-09-20T01:02:19.257Z,1014.55
2022-09-20T01:03:19.181Z,1014.55
2022-09-20T01:04:19.157Z,1014.57
2022-09-20T01:05:19.169Z,1014.56
2022-09-20T01:06:19.134Z,1014.52
2022-09-20T01:07:19.119Z,1014.51
2022-09-20T01:08:19.119Z,1014.52
2022-09-20T01:09:19.098Z,1014.55
2022-09-20T01:10:19.088Z,1014.52
2022-09-20T01:11:19.102Z,1014.57
2022-09-20T01:12:19.081Z,1014.52
2022-09-20T01:13:19.055Z,1014.52
2022-09-20T01:14:19.058Z,1014.56
2022-09-20T01:15:19.036Z,1014.53
2022-09-20T01:16:19.074Z,1014.61
2022-09-20T01:17:19.037Z,1014.59
2022-09-20T01:18:19.009Z,1014.60
2022-09-20T01:19:18.998Z,1014.60
2022-09-20T01:20:18.979Z,1014.59
2022-09-20T01:21:18.990Z,1014.57
2022-09-20T01:22:18.988Z,1014.62
2022-09-20T01:23:18.950Z,1014.61
2022-09-20T01:24:18.939Z,1014.59
2022-09-20T01:25:18.949Z,1014.60
2022-09-20T01:26:18.919Z,1014.62
2022-09-20T01:27:18.899Z,1014.59
2022-09-20T01:28:18.897Z,1014.59
2022-09-20T01:29:18.891Z,1014.59
2022-09-20T01:30:18.880Z,1014.62
2022-09-20T01:31:18.916Z,1014.60
2022-09-20T01:32:18.869Z,1014.62
2022-09-20T01:33:18.843Z,1014.62
2022-09-20T01:34:18.839Z,1014.63
2022-09-20T01:35:18.840Z,1014.62
2022-09-20T01:36:18.821Z,1014.62
2022-09-20T01:37:18.798Z,1014.62
2022-09-20T01:38:18.797Z,1014.66
2022-09-20T01:39:18.779Z,1014.70
2022-09-20T01:40:18.820Z,1014.63
2022-09-20T01:41:18.779Z,1014.67
2022-09-20T01:42:18.760Z,1014.64
2022-09-20T01:43:18.732Z,1014.68
2022-09-20T01:44:18.730Z,1014.69
2022-09-20T01:45:18.720Z,1014.70
2022-09-20T01:46:18.789Z,1014.70
2022-09-20T01:47:18.691Z,1014.72
2022-09-20T01:48:18.680Z,1014.79
2022-09-20T01:49:18.671Z,1014.78
2022-09-20T01:50:18.661Z,1014.76
2022-09-20T01:51:18.642Z,1014.75
2022-09-20T01:52:18.673Z,1014.72
2022-09-20T01:53:18.632Z,1014.73
2022-09-20T01:54:18.620Z,1014.71
2022-09-20T01:55:18.601Z,1014.72
2022-09-20T01:56:18.623Z,1014.67
2022-09-20T01:57:18.584Z,1014.74
2022-09-20T01:58:18.572Z,1014.73
2022-09-20T01:59:26.171Z,1014.68
2022-09-20T02:00:19.563Z,1014.69
2022-09-20T02:01:18.673Z,1014.72
2022-09-20T02:02:18.607Z,1014.72
2022-09-20T02:03:18.522Z,1014.71
2022-09-20T02:04:18.514Z,1014.68
2022-09-20T02:05:18.502Z,1014.70
2022-09-20T02:06:18.519Z,1014.65
2022-09-20T02:07:18.473Z,1014.67
2022-09-20T02:08:18.471Z,1014.65
2022-09-20T02:09:18.461Z,1014.69
2022-09-20T02:10:18.452Z,1014.72
2022-09-20T02:11:18.461Z,1014.74
2022-09-20T02:12:18.643Z,1014.74
2022-09-20T02:13:18.412Z,1014.69
2022-09-20T02:14:18.403Z,1014.72
2022-09-20T02:15:18.392Z,1014.66
2022-09-20T02:16:18.463Z,1014.68
2022-09-20T02:17:18.392Z,1014.67
2022-09-20T02:18:18.377Z,1014.70
2022-09-20T02:19:18.362Z,1014.68
2022-09-20T02:20:18.351Z,1014.70
2022-09-20T02:21:18.333Z,1014.74
2022-09-20T02:22:18.335Z,1014.75
2022-09-20T02:23:18.338Z,1014.74
2022-09-20T02:24:18.302Z,1014.74
2022-09-20T02:25:18.285Z,1014.77
2022-09-20T02:26:18.282Z,1014.74
2022-09-20T02:27:18.304Z,1014.68
2022-09-20T02:28:18.263Z,1014.71
2022-09-20T02:29:18.245Z,1014.71
2022-09-20T02:30:18.256Z,1014.71
2022-09-20T02:31:18.290Z,1014.72
2022-09-20T02:32:18.225Z,1014.72
2022-09-20T02:33:18.974Z,1014.74
2022-09-20T02:34:18.202Z,1014.67
2022-09-20T02:35:18.182Z,1014.70
2022-09-20T02:36:18.182Z,1014.67
2022-09-20T02:37:18.184Z,1014.69
2022-09-20T02:38:18.167Z,1014.68
2022-09-20T02:39:18.148Z,1014.69
2022-09-20T02:40:18.187Z,1014.71
2022-09-20T02:41:18.314Z,1014.70
2022-09-20T02:42:18.127Z,1014.75
2022-09-20T02:43:18.098Z,1014.74
2022-09-20T02:44:18.086Z,1014.76
2022-09-20T02:45:18.083Z,1014.73
2022-09-20T02:46:18.184Z,1014.76
2022-09-20T02:47:18.058Z,1014.68
2022-09-20T02:48:18.055Z,1014.69
2022-09-20T02:49:18.036Z,1014.71
2022-09-20T02:50:18.026Z,1014.71
2022-09-20T02:51:18.040Z,1014.69
2022-09-20T02:52:18.037Z,1014.73
2022-09-20T02:53:17.996Z,1014.72
2022-09-20T02:54:17.996Z,1014.77
2022-09-20T02:55:17.985Z,1014.72
2022-09-20T02:56:17.995Z,1014.74
2022-09-20T02:57:17.961Z,1014.75
2022-09-20T02:58:17.957Z,1014.77
2022-09-20T02:59:17.936Z,1014.76
2022-09-20T03:00:17.926Z,1014.69
2022-09-20T03:01:18.022Z,1014.73
2022-09-20T03:02:17.963Z,1014.73
2022-09-20T03:03:17.896Z,1014.74
2022-09-20T03:04:17.881Z,1014.77
2022-09-20T03:05:17.857Z,1014.80
2022-09-20T03:06:17.889Z,1014.79
2022-09-20T03:07:17.856Z,1014.77
2022-09-20T03:08:17.835Z,1014.79
2022-09-20T03:09:17.825Z,1014.78
2022-09-20T03:10:17.808Z,1014.75
2022-09-20T03:11:17.838Z,1014.82
2022-09-20T03:12:17.808Z,1014.74
2022-09-20T03:13:17.796Z,1014.75
2022-09-20T03:14:17.768Z,1014.71
2022-09-20T03:15:17.781Z,1014.76
2022-09-20T03:16:17.800Z,1014.71
2022-09-20T03:17:17.757Z,1014.72
2022-09-20T03:18:17.730Z,1014.77
2022-09-20T03:19:17.719Z,1014.74
2022-09-20T03:20:17.709Z,1014.73
2022-09-20T03:21:17.718Z,1014.72
2022-09-20T03:22:17.721Z,1014.70
2022-09-20T03:23:17.679Z,1014.69
2022-09-20T03:24:17.670Z,1014.75
2022-09-20T03:25:17.691Z,1014.71
2022-09-20T03:26:17.643Z,1014.73
2022-09-20T03:27:17.649Z,1014.75
2022-09-20T03:28:17.631Z,1014.74
2022-09-20T03:29:17.620Z,1014.74
2022-09-20T03:30:17.618Z,1014.77
2022-09-20T03:31:17.593Z,1014.76
2022-09-20T03:32:17.652Z,1014.75
2022-09-20T03:33:17.569Z,1014.78
2022-09-20T03:34:17.559Z,1014.78
2022-09-20T03:35:17.557Z,1014.79
2022-09-20T03:36:17.539Z,1014.81
2022-09-20T03:37:17.559Z,1014.77
2022-09-20T03:38:17.531Z,1014.79
2022-09-20T03:39:17.511Z,1014.81
2022-09-20T03:40:17.514Z,1014.84
2022-09-20T03:41:17.491Z,1014.86
2022-09-20T03:42:17.519Z,1014.83
2022-09-20T03:43:17.470Z,1014.86
2022-09-20T03:44:17.474Z,1014.86
2022-09-20T03:45:17.468Z,1014.85
2022-09-20T03:46:17.501Z,1014.88
2022-09-20T03:47:17.448Z,1014.83
2022-09-20T03:48:17.427Z,1014.85
2022-09-20T03:49:17.405Z,1014.82
2022-09-20T03:50:17.391Z,1014.84
2022-09-20T03:51:17.380Z,1014.92
2022-09-20T03:52:17.389Z,1014.86
2022-09-20T03:53:17.381Z,1014.82
2022-09-20T03:54:17.340Z,1014.83
2022-09-20T03:55:17.371Z,1014.82
2022-09-20T03:56:17.333Z,1014.86
2022-09-20T03:57:17.355Z,1014.88
2022-09-20T03:58:17.301Z,1014.82
2022-09-20T03:59:17.292Z,1014.81
2022-09-20T04:00:17.277Z,1014.84
2022-09-20T04:01:17.315Z,1014.84
2022-09-20T04:02:17.330Z,1014.87
2022-09-20T04:03:17.250Z,1014.81
2022-09-20T04:04:17.229Z,1014.87
2022-09-20T04:05:17.232Z,1014.87
2022-09-20T04:06:17.213Z,1014.89
2022-09-20T04:07:17.240Z,1014.90
2022-09-20T04:08:17.192Z,1014.90
2022-09-20T04:09:17.179Z,1014.94
2022-09-20T04:10:17.170Z,1014.93
2022-09-20T04:11:17.168Z,1014.97
2022-09-20T04:12:17.182Z,1014.92
2022-09-20T04:13:17.158Z,1014.95
2022-09-20T04:14:17.124Z,1014.94
2022-09-20T04:15:17.122Z,1014.93
2022-09-20T04:16:17.127Z,1014.94
2022-09-20T04:17:17.102Z,1014.92
2022-09-20T04:18:17.111Z,1014.90
2022-09-20T04:19:17.069Z,1014.94
2022-09-20T04:20:17.062Z,1014.92
2022-09-20T04:21:17.042Z,1014.86
2022-09-20T04:22:17.051Z,1014.91
2022-09-20T04:23:17.053Z,1014.91
2022-09-20T04:24:17.029Z,1014.95
2022-09-20T04:25:17.002Z,1015.01
2022-09-20T04:26:16.993Z,1015.00
2022-09-20T04:27:16.984Z,1015.02
2022-09-20T04:28:17.011Z,1015.03
2022-09-20T04:29:16.963Z,1015.02
2022-09-20T04:30:16.965Z,1015.01
2022-09-20T04:31:20.095Z,1015.05
2022-09-20T04:32:16.999Z,1015.06
2022-09-20T04:33:16.941Z,1015.05
2022-09-20T04:34:16.910Z,1015.03
2022-09-20T04:35:16.902Z,1015.04
2022-09-20T04:36:16.893Z,1015.06
2022-09-20T04:37:16.880Z,1015.03
2022-09-20T04:38:16.893Z,1015.06
2022-09-20T04:39:16.873Z,1015.04
2022-09-20T04:40:16.923Z,1015.07
2022-09-20T04:41:16.825Z,1015.02
2022-09-20T04:42:16.832Z,1015.05
2022-09-20T04:43:16.824Z,1015.04
2022-09-20T04:44:16.824Z,1015.09
2022-09-20T04:45:16.790Z,1015.10
2022-09-20T04:46:16.874Z,1015.07
2022-09-20T04:47:16.773Z,1015.10
2022-09-20T04:48:16.754Z,1015.07
2022-09-20T04:49:16.742Z,1015.09
2022-09-20T04:50:16.753Z,1015.12
2022-09-20T04:51:16.725Z,1015.10
2022-09-20T04:52:16.724Z,1015.09
2022-09-20T04:53:16.693Z,1015.08
2022-09-20T04:54:16.714Z,1015.16
2022-09-20T04:55:16.675Z,1015.17
2022-09-20T04:56:16.685Z,1015.20
2022-09-20T04:57:16.654Z,1015.17
2022-09-20T04:58:16.643Z,1015.19
2022-09-20T04:59:16.636Z,1015.14
2022-09-20T05:00:16.622Z,1015.16
2022-09-20T05:01:16.951Z,1015.10
2022-09-20T05:02:16.654Z,1015.13
2022-09-20T05:03:16.595Z,1015.11
2022-09-20T05:04:16.575Z,1015.11
2022-09-20T05:05:16.567Z,1015.13
2022-09-20T05:06:16.556Z,1015.15
2022-09-20T05:07:16.563Z,1015.18
2022-09-20T05:08:16.537Z,1015.14
2022-09-20T05:09:16.522Z,1015.17
2022-09-20T05:10:16.518Z,1015.15
2022-09-20T05:11:16.525Z,1015.19
2022-09-20T05:12:16.507Z,1015.15
2022-09-20T05:13:16.483Z,1015.15
2022-09-20T05:14:16.475Z,1015.17
2022-09-20T05:15:16.455Z,1015.20
2022-09-20T05:16:16.500Z,1015.22
2022-09-20T05:17:16.464Z,1015.21
2022-09-20T05:18:16.424Z,1015.18
2022-09-20T05:19:16.415Z,1015.19
2022-09-20T05:20:16.404Z,1015.21
2022-09-20T05:21:16.386Z,1015.21
2022-09-20T05:22:16.414Z,1015.21
2022-09-20T05:23:16.365Z,1015.29
2022-09-20T05:24:16.616Z,1015.28
2022-09-20T05:25:16.344Z,1015.30
2022-09-20T05:26:16.343Z,1015.28
2022-09-20T05:27:16.328Z,1015.29
2022-09-20T05:28:16.336Z,1015.27
2022-09-20T05:29:16.324Z,1015.28
2022-09-20T05:30:16.292Z,1015.30
2022-09-20T05:31:16.276Z,1015.33
2022-09-20T05:32:16.293Z,1015.29
2022-09-20T05:33:16.255Z,1015.33
2022-09-20T05:34:16.247Z,1015.37
2022-09-20T05:35:16.265Z,1015.38
2022-09-20T05:36:16.227Z,1015.38
2022-09-20T05:37:16.215Z,1015.38
2022-09-20T05:38:16.256Z,1015.37
2022-09-20T05:39:16.198Z,1015.39
2022-09-20T05:40:16.245Z,1015.42
2022-09-20T05:41:16.186Z,1015.44
2022-09-20T05:42:16.178Z,1015.43
2022-09-20T05:43:16.145Z,1015.44
2022-09-20T05:44:16.166Z,1015.45
2022-09-20T05:45:16.124Z,1015.44
2022-09-20T05:46:16.114Z,1015.44
2022-09-20T05:47:16.108Z,1015.46
2022-09-20T05:48:16.095Z,1015.49
2022-09-20T05:49:16.105Z,1015.48
2022-09-20T05:50:16.077Z,1015.49
2022-09-20T05:51:16.058Z,1015.50
2022-09-20T05:52:23.135Z,1015.51
2022-09-20T05:53:16.047Z,1015.53
2022-09-20T05:54:16.028Z,1015.51
2022-09-20T05:55:16.022Z,1015.55
2022-09-20T05:56:16.015Z,1015.53
2022-09-20T05:57:16.021Z,1015.53
2022-09-20T05:58:15.988Z,1015.55
2022-09-20T05:59:16.013Z,1015.55
2022-09-20T06:00:15.960Z,1015.55
2022-09-20T06:01:15.998Z,1015.56
2022-09-20T06:02:16.012Z,1015.56
2022-09-20T06:03:15.928Z,1015.58
2022-09-20T06:04:15.920Z,1015.54
2022-09-20T06:05:15.909Z,1015.58
2022-09-20T06:06:15.908Z,1015.51
2022-09-20T06:07:15.907Z,1015.54
2022-09-20T06:08:15.880Z,1015.54
2022-09-20T06:09:15.867Z,1015.54
2022-09-20T06:10:15.860Z,1015.55
2022-09-20T06:11:15.846Z,1015.51
2022-09-20T06:12:15.867Z,1015.52
2022-09-20T06:13:15.819Z,1015.56
2022-09-20T06:14:15.811Z,1015.57
2022-09-20T06:15:15.803Z,1015.53
2022-09-20T06:16:15.834Z,1015.54
2022-09-20T06:17:15.799Z,1015.59
2022-09-20T06:18:15.798Z,1015.56
2022-09-20T06:19:16.588Z,1015.58
2022-09-20T06:20:15.759Z,1015.54
2022-09-20T06:21:15.760Z,1015.52
2022-09-20T06:22:15.754Z,1015.60
2022-09-20T06:23:15.720Z,1015.53
2022-09-20T06:24:15.741Z,1015.56
2022-09-20T06:25:15.689Z,1015.58
2022-09-20T06:26:15.690Z,1015.58
2022-09-20T06:27:15.671Z,1015.60
2022-09-20T06:28:15.701Z,1015.63
2022-09-20T06:29:15.652Z,1015.64
2022-09-20T06:30:15.641Z,1015.59
2022-09-20T06:31:15.719Z,1015.63
2022-09-20T06:32:15.632Z,1015.61
2022-09-20T06:33:15.640Z,1015.67
2022-09-20T06:34:15.609Z,1015.72
2022-09-20T06:35:15.591Z,1015.65
2022-09-20T06:36:15.581Z,1015.71
2022-09-20T06:37:15.570Z,1015.68
2022-09-20T06:38:15.580Z,1015.73
2022-09-20T06:39:15.569Z,1015.72
2022-09-20T06:40:15.565Z,1015.72
2022-09-20T06:41:15.533Z,1015.73
2022-09-20T06:42:15.532Z,1015.72
2022-09-20T06:43:15.530Z,1015.71
2022-09-20T06:44:15.492Z,1015.73
2022-09-20T06:45:15.481Z,1015.75
2022-09-20T06:46:15.518Z,1015.74
2022-09-20T06:47:15.462Z,1015.70
2022-09-20T06:48:15.480Z,1015.73
2022-09-20T06:49:15.442Z,1015.78
2022-09-20T06:50:15.422Z,1015.76
2022-09-20T06:51:15.413Z,1015.80
2022-09-20T06:52:15.426Z,1015.75
2022-09-20T06:53:15.412Z,1015.78
2022-09-20T06:54:15.383Z,1015.78
2022-09-20T06:55:15.384Z,1015.81
2022-09-20T06:56:15.364Z,1015.83
2022-09-20T06:57:15.353Z,1015.82
2022-09-20T06:58:15.363Z,1015.79
2022-09-20T06:59:15.332Z,1015.85
2022-09-20T07:00:15.322Z,1015.81
2022-09-20T07:01:26.444Z,1015.85
2022-09-20T07:02:16.354Z,1015.91
2022-09-20T07:03:15.313Z,1015.84
2022-09-20T07:04:15.282Z,1015.87
2022-09-20T07:05:15.266Z,1015.88
2022-09-20T07:06:15.256Z,1015.85
2022-09-20T07:07:15.242Z,1015.88
2022-09-20T07:08:15.242Z,1015.93
2022-09-20T07:09:15.250Z,1015.89
2022-09-20T07:10:15.225Z,1015.93
2022-09-20T07:11:15.665Z,1015.91
2022-09-20T07:12:15.276Z,1015.93
2022-09-20T07:13:15.221Z,1015.91
2022-09-20T07:14:15.213Z,1015.94
2022-09-20T07:15:15.164Z,1015.91
2022-09-20T07:16:15.226Z,1015.94
2022-09-20T07:17:15.133Z,1015.96
2022-09-20T07:18:15.150Z,1015.95
2022-09-20T07:19:15.146Z,1015.93
2022-09-20T07:20:17.443Z,1015.94
2022-09-20T07:21:16.085Z,1015.90
2022-09-20T07:22:15.186Z,1015.91
2022-09-20T07:23:15.074Z,1015.98
2022-09-20T07:24:15.091Z,1015.99
2022-09-20T07:25:15.161Z,1016.05
2022-09-20T07:26:15.076Z,1015.99
2022-09-20T07:27:15.039Z,1016.05
2022-09-20T07:28:15.024Z,1016.03
2022-09-20T07:29:15.014Z,1016.03
2022-09-20T07:30:15.008Z,1016.00
2022-09-20T07:31:15.058Z,1016.03
2022-09-20T07:32:15.072Z,1016.04
2022-09-20T07:33:14.985Z,1016.03
2022-09-20T07:34:14.966Z,1016.01
2022-09-20T07:35:14.935Z,1016.03
2022-09-20T07:36:14.995Z,1016.04
2022-09-20T07:37:14.935Z,1016.03
2022-09-20T07:38:14.906Z,1016.00
2022-09-20T07:39:14.886Z,1016.06
2022-09-20T07:40:14.975Z,1016.03
2022-09-20T07:41:14.869Z,1016.00
2022-09-20T07:42:14.897Z,1016.00
2022-09-20T07:43:14.846Z,1015.96
2022-09-20T07:44:14.837Z,1016.00
2022-09-20T07:45:14.858Z,1016.01
2022-09-20T07:46:14.849Z,1015.99
2022-09-20T07:47:14.797Z,1015.98
2022-09-20T07:48:14.796Z,1015.98
2022-09-20T07:49:14.776Z,1015.99
2022-09-20T07:50:14.788Z,1016.05
2022-09-20T07:51:14.758Z,1016.07
2022-09-20T07:52:14.751Z,1016.00
2022-09-20T07:53:14.728Z,1016.09
2022-09-20T07:54:14.730Z,1016.08
2022-09-20T07:55:14.730Z,1016.08
2022-09-20T07:56:14.726Z,1016.01
2022-09-20T07:57:14.688Z,1016.04
2022-09-20T07:58:14.699Z,1016.04
2022-09-20T07:59:14.674Z,1016.03
2022-09-20T08:00:14.681Z,1016.09
2022-09-20T08:01:14.698Z,1016.08
2022-09-20T08:02:14.683Z,1016.09
2022-09-20T08:03:14.677Z,1016.10
2022-09-20T08:04:14.653Z,1016.09
2022-09-20T08:05:14.625Z,1016.09
2022-09-20T08:06:14.634Z,1016.18
2022-09-20T08:07:14.604Z,1016.11
2022-09-20T08:08:14.618Z,1016.14
2022-09-20T08:09:14.624Z,1016.10
2022-09-20T08:10:14.582Z,1016.10
2022-09-20T08:11:14.599Z,1016.12
2022-09-20T08:14:15.590Z,1016.13
2022-09-20T08:15:14.542Z,1016.11
2022-09-20T08:16:14.570Z,1016.03
2022-09-20T08:17:14.479Z,1016.10
2022-09-20T08:18:14.488Z,1016.11
2022-09-20T08:19:14.442Z,1016.14
2022-09-20T08:20:14.453Z,1016.11
2022-09-20T08:21:14.425Z,1016.10
2022-09-20T08:22:14.409Z,1016.18
2022-09-20T08:23:23.551Z,1016.14
2022-09-20T08:24:15.398Z,1016.13
2022-09-20T08:25:14.400Z,1016.14
2022-09-20T08:26:14.372Z,1016.15
2022-09-20T08:27:14.363Z,1016.17
2022-09-20T08:28:14.352Z,1016.16
2022-09-20T08:29:14.333Z,1016.23
2022-09-20T08:30:14.352Z,1016.16
2022-09-20T08:31:14.375Z,1016.11
2022-09-20T08:32:14.352Z,1016.18
2022-09-20T08:33:14.299Z,1016.22
2022-09-20T08:34:14.292Z,1016.24
2022-09-20T08:35:14.271Z,1016.24
2022-09-20T08:36:14.253Z,1016.27
2022-09-20T08:37:14.253Z,1016.25
2022-09-20T08:40:15.254Z,1016.28
2022-09-20T08:41:14.232Z,1016.29
2022-09-20T08:42:14.197Z,1016.29
2022-09-20T08:43:14.183Z,1016.30
2022-09-20T08:44:14.172Z,1016.33
2022-09-20T08:45:22.317Z,1016.35
2022-09-20T08:46:15.215Z,1016.28
2022-09-20T08:47:14.143Z,1016.27
2022-09-20T08:48:14.407Z,1016.24
2022-09-20T08:49:14.143Z,1016.24
2022-09-20T08:50:17.571Z,1016.21
2022-09-20T08:51:14.094Z,1016.19
2022-09-20T08:52:14.085Z,1016.26
2022-09-20T08:53:14.091Z,1016.26
2022-09-20T08:54:14.062Z,1016.21
2022-09-20T08:55:14.074Z,1016.23
2022-09-20T08:56:14.034Z,1016.21
2022-09-20T08:57:14.084Z,1016.17
2022-09-20T08:58:14.024Z,1016.19
2022-09-20T08:59:14.017Z,1016.15
2022-09-20T09:00:14.005Z,1016.19
2022-09-20T09:01:14.083Z,1016.17
2022-09-20T09:02:14.078Z,1016.27
2022-09-20T09:03:13.985Z,1016.22
2022-09-20T09:04:13.947Z,1016.18
2022-09-20T09:05:13.968Z,1016.12
2022-09-20T09:06:18.232Z,1016.13
2022-09-20T09:07:13.926Z,1016.18
2022-09-20T09:08:13.906Z,1016.23
2022-09-20T09:09:13.917Z,1016.21
2022-09-20T09:10:13.911Z,1016.26
2022-09-20T09:11:13.878Z,1016.21
2022-09-20T09:12:13.867Z,1016.21
2022-09-20T09:13:13.868Z,1016.21
2022-09-20T09:14:13.866Z,1016.16
2022-09-20T09:15:17.647Z,1016.21
2022-09-20T09:16:13.855Z,1016.19
2022-09-20T09:17:13.902Z,1016.21
2022-09-20T09:18:13.798Z,1016.19
2022-09-20T09:19:13.788Z,1016.17
2022-09-20T09:20:13.779Z,1016.13
2022-09-20T09:21:13.801Z,1016.21
2022-09-20T09:22:13.780Z,1016.17
2022-09-20T09:23:13.750Z,1016.19
2022-09-20T09:24:13.739Z,1016.15
2022-09-20T09:25:13.729Z,1016.16
2022-09-20T09:26:13.711Z,1016.17
2022-09-20T09:27:13.720Z,1016.20
2022-09-20T09:28:13.713Z,1016.21
2022-09-20T09:29:13.680Z,1016.24
2022-09-20T09:30:13.668Z,1016.27
2022-09-20T09:31:13.694Z,1016.30
2022-09-20T09:32:13.650Z,1016.30
2022-09-20T09:33:13.631Z,1016.38
2022-09-20T09:34:13.633Z,1016.25
2022-09-20T09:35:13.612Z,1016.27
2022-09-20T09:36:13.651Z,1016.24
2022-09-20T09:37:13.592Z,1016.32
2022-09-20T09:38:13.609Z,1016.34
2022-09-20T09:39:13.571Z,1016.37
2022-09-20T09:40:13.601Z,1016.41
2022-09-20T09:41:13.575Z,1016.37
2022-09-20T09:42:13.542Z,1016.40
2022-09-20T09:43:13.532Z,1016.39
2022-09-20T09:44:13.512Z,1016.42
2022-09-20T09:45:13.502Z,1016.45
2022-09-20T09:46:13.577Z,1016.41
2022-09-20T09:47:13.482Z,1016.39
2022-09-20T09:48:13.467Z,1016.39
2022-09-20T09:49:13.614Z,1016.42
2022-09-20T09:50:13.445Z,1016.38
2022-09-20T09:51:13.455Z,1016.35
2022-09-20T09:52:13.427Z,1016.31
2022-09-20T09:53:13.419Z,1016.37
2022-09-20T09:54:13.406Z,1016.33
2022-09-20T09:55:13.394Z,1016.35
2022-09-20T09:56:14.272Z,1016.34
2022-09-20T09:57:13.374Z,1016.34
2022-09-20T09:58:13.358Z,1016.30
2022-09-20T09:59:13.395Z,1016.31
2022-09-20T10:00:19.315Z,1016.25
2022-09-20T10:01:14.377Z,1016.33
2022-09-20T10:02:13.381Z,1016.28
2022-09-20T10:03:13.307Z,1016.28
2022-09-20T10:04:13.287Z,1016.30
2022-09-20T10:05:13.289Z,1016.28
2022-09-20T10:06:13.266Z,1016.27
2022-09-20T10:07:13.301Z,1016.31
2022-09-20T10:08:13.247Z,1016.27
2022-09-20T10:09:13.245Z,1016.28
2022-09-20T10:10:13.230Z,1016.33
2022-09-20T10:11:13.221Z,1016.30
2022-09-20T10:12:13.228Z,1016.32
2022-09-20T10:13:13.198Z,1016.33
2022-09-20T10:14:13.181Z,1016.32
2022-09-20T10:15:13.179Z,1016.32
2022-09-20T10:16:13.219Z,1016.27
2022-09-20T10:17:13.179Z,1016.27
2022-09-20T10:18:13.142Z,1016.25
2022-09-20T10:19:13.131Z,1016.23
2022-09-20T10:20:13.148Z,1016.22
2022-09-20T10:21:13.111Z,1016.25
2022-09-20T10:22:13.092Z,1016.22
2022-09-20T10:24:14.072Z,1016.22
2022-09-20T10:25:13.063Z,1016.24
2022-09-20T10:26:13.061Z,1016.27
2022-09-20T10:27:13.051Z,1016.19
2022-09-20T10:28:13.051Z,1016.28
2022-09-20T10:29:13.061Z,1016.24
2022-09-20T10:30:13.165Z,1016.26
2022-09-20T10:31:13.068Z,1016.23
2022-09-20T10:32:15.059Z,1016.34
2022-09-20T10:33:12.974Z,1016.30
2022-09-20T10:34:12.976Z,1016.24
2022-09-20T10:35:12.973Z,1016.26
2022-09-20T10:36:12.954Z,1016.33
2022-09-20T10:37:12.935Z,1016.34
2022-09-20T10:38:12.924Z,1016.29
2022-09-20T10:39:12.935Z,1016.32
2022-09-20T10:40:13.067Z,1016.35
2022-09-20T10:41:12.895Z,1016.30
2022-09-20T10:42:12.875Z,1016.47
2022-09-20T10:43:12.874Z,1016.42
2022-09-20T10:44:12.869Z,1016.28
2022-09-20T10:45:24.401Z,1016.31
2022-09-20T10:46:31.426Z,1016.28
2022-09-20T10:47:13.869Z,1016.27
2022-09-20T10:48:12.814Z,1016.23
2022-09-20T10:49:12.827Z,1016.20
2022-09-20T10:50:12.834Z,1016.17
2022-09-20T10:51:12.786Z,1016.16
2022-09-20T10:52:12.768Z,1016.18
2022-09-20T10:53:12.756Z,1016.11
2022-09-20T10:54:12.767Z,1016.12
2022-09-20T10:55:12.738Z,1016.16
2022-09-20T10:56:12.728Z,1016.14
2022-09-20T10:57:12.720Z,1016.11
2022-09-20T10:58:12.698Z,1016.11
2022-09-20T10:59:12.720Z,1016.05
2022-09-20T11:00:12.734Z,1016.04
2022-09-20T11:01:12.779Z,1016.08
2022-09-20T11:02:12.690Z,1016.05
2022-09-20T11:03:12.660Z,1015.94
2022-09-20T11:04:12.639Z,1016.00
2022-09-20T11:05:12.632Z,1015.96
2022-09-20T11:06:12.642Z,1016.04
2022-09-20T11:07:12.614Z,1015.98
2022-09-20T11:08:12.600Z,1016.01
2022-09-20T11:09:14.171Z,1016.06
2022-09-20T11:10:12.572Z,1016.01
2022-09-20T11:11:12.565Z,1016.10
2022-09-20T11:12:12.573Z,1016.05
2022-09-20T11:13:12.553Z,1016.09
2022-09-20T11:14:12.533Z,1016.08
2022-09-20T11:15:12.524Z,1016.11
2022-09-20T11:16:12.562Z,1016.10
2022-09-20T11:17:12.504Z,1016.10
2022-09-20T11:18:12.496Z,1016.06
2022-09-20T11:19:12.476Z,1016.12
2022-09-20T11:20:12.466Z,1016.11
2022-09-20T11:21:12.462Z,1016.07
2022-09-20T11:22:12.467Z,1016.10
2022-09-20T11:23:12.444Z,1016.13
2022-09-20T11:24:12.428Z,1016.12
2022-09-20T11:25:14.796Z,1016.15
2022-09-20T11:26:12.407Z,1016.13
2022-09-20T11:27:12.417Z,1016.11
2022-09-20T11:28:12.379Z,1016.14
2022-09-20T11:29:12.372Z,1016.09
2022-09-20T11:30:12.361Z,1016.08
2022-09-20T11:31:12.350Z,1015.92
2022-09-20T11:32:13.877Z,1015.95
2022-09-20T11:33:12.328Z,1015.91
2022-09-20T11:34:12.311Z,1015.92
2022-09-20T11:35:12.313Z,1015.92
2022-09-20T11:36:12.300Z,1015.93
2022-09-20T11:37:12.308Z,1015.95
2022-09-20T11:38:12.271Z,1016.00
2022-09-20T11:39:12.270Z,1015.96
2022-09-20T11:40:12.305Z,1016.08
2022-09-20T11:41:12.244Z,1016.08
2022-09-20T11:42:12.253Z,1015.97
2022-09-20T11:43:12.222Z,1016.05
2022-09-20T11:44:12.212Z,1016.06
2022-09-20T11:45:12.195Z,1016.09
2022-09-20T11:46:12.238Z,1016.02
2022-09-20T11:47:12.180Z,1016.03
2022-09-20T11:48:12.186Z,1016.02
2022-09-20T11:49:12.156Z,1016.02
2022-09-20T11:50:12.147Z,1016.05
2022-09-20T11:51:12.136Z,1016.03
2022-09-20T11:52:12.146Z,1016.02
2022-09-20T11:53:19.927Z,1015.99
2022-09-20T11:54:12.126Z,1015.99
2022-09-20T11:55:12.095Z,1016.06
2022-09-20T11:56:12.875Z,1016.08
2022-09-20T11:57:12.128Z,1016.07
2022-09-20T11:58:12.084Z,1016.06
2022-09-20T11:59:12.077Z,1016.09
2022-09-20T12:00:12.050Z,1016.04
2022-09-20T12:01:12.053Z,1016.04
2022-09-20T12:02:12.185Z,1016.04
2022-09-20T12:03:12.110Z,1016.03
2022-09-20T12:04:31.647Z,1016.04
2022-09-20T12:05:13.012Z,1015.99
2022-09-20T12:06:11.997Z,1016.01
2022-09-20T12:07:16.986Z,1015.90
2022-09-20T12:08:12.960Z,1015.92
2022-09-20T12:09:11.951Z,1015.85
2022-09-20T12:10:11.970Z,1015.98